sensor_id;sensor_type;location;lat;lon;timestamp;P1;durP1;ratioP1;P2;durP2;ratioP2
54921;SDS011;40824;45.116;21.296;2024-03-23T00:52:45;19.67;;;13.15;;
54921;SDS011;40824;45.116;21.296;2024-03-23T00:55:11;18.92;;;13.00;;
54921;SDS011;40824;45.116;21.296;2024-03-23T00:57:38;20.48;;;13.40;;
54921;SDS011;40824;45.116;21.296;2024-03-23T01:00:04;19.10;;;12.65;;
54921;SDS011;40824;45.116;21.296;2024-03-23T01:02:31;22.25;;;13.60;;
54921;SDS011;40824;45.116;21.296;2024-03-23T01:04:57;21.30;;;12.85;;
54921;SDS011;40824;45.116;21.296;2024-03-23T01:07:24;20.35;;;12.85;;
54921;SDS011;40824;45.116;21.296;2024-03-23T01:09:50;18.02;;;12.35;;
54921;SDS011;40824;45.116;21.296;2024-03-23T01:12:18;18.35;;;12.27;;
54921;SDS011;40824;45.116;21.296;2024-03-23T01:14:44;18.90;;;13.55;;
54921;SDS011;40824;45.116;21.296;2024-03-23T01:17:10;21.30;;;13.35;;
54921;SDS011;40824;45.116;21.296;2024-03-23T01:19:36;21.98;;;13.70;;
54921;SDS011;40824;45.116;21.296;2024-03-23T01:22:04;22.55;;;13.50;;
54921;SDS011;40824;45.116;21.296;2024-03-23T01:24:32;19.13;;;13.52;;
54921;SDS011;40824;45.116;21.296;2024-03-23T01:26:58;19.75;;;12.63;;
54921;SDS011;40824;45.116;21.296;2024-03-23T01:29:24;19.55;;;12.25;;
54921;SDS011;40824;45.116;21.296;2024-03-23T01:31:50;18.95;;;12.52;;
54921;SDS011;40824;45.116;21.296;2024-03-23T01:34:16;20.55;;;13.10;;
54921;SDS011;40824;45.116;21.296;2024-03-23T01:36:42;19.48;;;11.75;;
54921;SDS011;40824;45.116;21.296;2024-03-23T01:39:09;20.00;;;13.60;;
54921;SDS011;40824;45.116;21.296;2024-03-23T01:41:35;20.05;;;12.38;;
54921;SDS011;40824;45.116;21.296;2024-03-23T01:44:04;16.77;;;11.27;;
54921;SDS011;40824;45.116;21.296;2024-03-23T01:46:32;20.98;;;11.98;;
54921;SDS011;40824;45.116;21.296;2024-03-23T01:48:58;19.17;;;12.48;;
54921;SDS011;40824;45.116;21.296;2024-03-23T01:51:25;20.60;;;12.88;;
54921;SDS011;40824;45.116;21.296;2024-03-23T01:53:51;19.73;;;12.45;;
54921;SDS011;40824;45.116;21.296;2024-03-23T01:56:18;19.67;;;13.18;;
54921;SDS011;40824;45.116;21.296;2024-03-23T01:58:45;18.58;;;12.13;;
54921;SDS011;40824;45.116;21.296;2024-03-23T02:01:11;22.90;;;12.68;;
54921;SDS011;40824;45.116;21.296;2024-03-23T02:03:37;18.48;;;11.98;;
54921;SDS011;40824;45.116;21.296;2024-03-23T02:06:03;16.73;;;12.18;;
54921;SDS011;40824;45.116;21.296;2024-03-23T02:08:32;17.67;;;12.27;;
54921;SDS011;40824;45.116;21.296;2024-03-23T02:10:58;21.88;;;12.35;;
54921;SDS011;40824;45.116;21.296;2024-03-23T02:13:24;19.02;;;11.43;;
54921;SDS011;40824;45.116;21.296;2024-03-23T02:15:51;21.60;;;12.65;;
54921;SDS011;40824;45.116;21.296;2024-03-23T02:18:17;18.83;;;12.35;;
54921;SDS011;40824;45.116;21.296;2024-03-23T02:20:43;20.30;;;13.18;;
54921;SDS011;40824;45.116;21.296;2024-03-23T02:23:13;17.25;;;12.05;;
54921;SDS011;40824;45.116;21.296;2024-03-23T02:25:39;18.25;;;11.63;;
54921;SDS011;40824;45.116;21.296;2024-03-23T02:28:05;18.40;;;12.35;;
54921;SDS011;40824;45.116;21.296;2024-03-23T02:30:31;17.45;;;12.05;;
54921;SDS011;40824;45.116;21.296;2024-03-23T02:32:57;17.17;;;12.18;;
54921;SDS011;40824;45.116;21.296;2024-03-23T02:35:24;21.35;;;11.90;;
54921;SDS011;40824;45.116;21.296;2024-03-23T02:37:50;18.00;;;12.82;;
54921;SDS011;40824;45.116;21.296;2024-03-23T02:40:16;20.65;;;12.38;;
54921;SDS011;40824;45.116;21.296;2024-03-23T02:42:43;19.75;;;11.23;;
54921;SDS011;40824;45.116;21.296;2024-03-23T02:45:09;18.38;;;11.70;;
54921;SDS011;40824;45.116;21.296;2024-03-23T02:47:35;19.42;;;11.80;;
54921;SDS011;40824;45.116;21.296;2024-03-23T02:50:01;19.42;;;12.45;;
54921;SDS011;40824;45.116;21.296;2024-03-23T02:52:27;20.73;;;11.30;;
54921;SDS011;40824;45.116;21.296;2024-03-23T02:54:53;19.08;;;11.88;;
54921;SDS011;40824;45.116;21.296;2024-03-23T02:57:19;19.95;;;11.00;;
54921;SDS011;40824;45.116;21.296;2024-03-23T02:59:45;19.88;;;12.30;;
54921;SDS011;40824;45.116;21.296;2024-03-23T03:02:12;17.80;;;11.32;;
54921;SDS011;40824;45.116;21.296;2024-03-23T03:04:39;18.20;;;11.05;;
54921;SDS011;40824;45.116;21.296;2024-03-23T03:07:05;21.65;;;11.60;;
54921;SDS011;40824;45.116;21.296;2024-03-23T03:09:31;17.80;;;11.45;;
54921;SDS011;40824;45.116;21.296;2024-03-23T03:11:58;18.42;;;11.90;;
54921;SDS011;40824;45.116;21.296;2024-03-23T03:14:24;26.48;;;10.85;;
54921;SDS011;40824;45.116;21.296;2024-03-23T03:16:50;18.02;;;11.00;;
54921;SDS011;40824;45.116;21.296;2024-03-23T03:19:16;19.10;;;11.10;;
54921;SDS011;40824;45.116;21.296;2024-03-23T03:21:42;17.60;;;12.02;;
54921;SDS011;40824;45.116;21.296;2024-03-23T03:24:08;16.75;;;11.35;;
54921;SDS011;40824;45.116;21.296;2024-03-23T03:26:34;22.02;;;11.38;;
54921;SDS011;40824;45.116;21.296;2024-03-23T03:29:01;17.10;;;11.80;;
54921;SDS011;40824;45.116;21.296;2024-03-23T03:31:28;19.85;;;11.55;;
54921;SDS011;40824;45.116;21.296;2024-03-23T03:33:54;17.00;;;10.82;;
54921;SDS011;40824;45.116;21.296;2024-03-23T03:36:20;20.92;;;11.20;;
54921;SDS011;40824;45.116;21.296;2024-03-23T03:38:46;17.13;;;11.05;;
54921;SDS011;40824;45.116;21.296;2024-03-23T03:41:12;17.98;;;11.85;;
54921;SDS011;40824;45.116;21.296;2024-03-23T03:43:38;16.42;;;11.00;;
54921;SDS011;40824;45.116;21.296;2024-03-23T03:46:05;19.00;;;12.00;;
54921;SDS011;40824;45.116;21.296;2024-03-23T03:48:33;16.00;;;10.48;;
54921;SDS011;40824;45.116;21.296;2024-03-23T03:50:59;17.58;;;11.30;;
54921;SDS011;40824;45.116;21.296;2024-03-23T03:53:25;16.20;;;11.35;;
54921;SDS011;40824;45.116;21.296;2024-03-23T03:55:51;19.48;;;11.05;;
54921;SDS011;40824;45.116;21.296;2024-03-23T03:58:17;15.35;;;10.40;;
54921;SDS011;40824;45.116;21.296;2024-03-23T04:00:43;15.60;;;10.07;;
54921;SDS011;40824;45.116;21.296;2024-03-23T04:03:10;14.70;;;10.52;;
54921;SDS011;40824;45.116;21.296;2024-03-23T04:05:36;15.43;;;10.15;;
54921;SDS011;40824;45.116;21.296;2024-03-23T04:08:03;14.73;;;10.57;;
54921;SDS011;40824;45.116;21.296;2024-03-23T04:10:29;16.00;;;10.43;;
54921;SDS011;40824;45.116;21.296;2024-03-23T04:12:55;16.98;;;10.77;;
54921;SDS011;40824;45.116;21.296;2024-03-23T04:15:21;16.90;;;10.60;;
54921;SDS011;40824;45.116;21.296;2024-03-23T04:17:48;20.23;;;12.23;;
54921;SDS011;40824;45.116;21.296;2024-03-23T04:20:14;16.50;;;10.68;;
54921;SDS011;40824;45.116;21.296;2024-03-23T04:22:42;15.07;;;10.30;;
54921;SDS011;40824;45.116;21.296;2024-03-23T04:25:08;16.73;;;10.88;;
54921;SDS011;40824;45.116;21.296;2024-03-23T04:27:38;15.45;;;10.85;;
54921;SDS011;40824;45.116;21.296;2024-03-23T04:30:07;18.10;;;10.82;;
54921;SDS011;40824;45.116;21.296;2024-03-23T04:32:39;17.67;;;10.70;;
54921;SDS011;40824;45.116;21.296;2024-03-23T04:35:05;17.10;;;10.23;;
54921;SDS011;40824;45.116;21.296;2024-03-23T04:37:33;16.92;;;10.25;;
54921;SDS011;40824;45.116;21.296;2024-03-23T04:40:00;14.88;;;9.82;;
54921;SDS011;40824;45.116;21.296;2024-03-23T04:42:27;18.38;;;9.98;;
54921;SDS011;40824;45.116;21.296;2024-03-23T04:44:53;14.60;;;9.50;;
54921;SDS011;40824;45.116;21.296;2024-03-23T04:47:19;18.60;;;9.30;;
54921;SDS011;40824;45.116;21.296;2024-03-23T04:49:45;15.43;;;10.40;;
54921;SDS011;40824;45.116;21.296;2024-03-23T04:52:11;16.73;;;10.93;;
54921;SDS011;40824;45.116;21.296;2024-03-23T04:54:38;16.88;;;10.60;;
54921;SDS011;40824;45.116;21.296;2024-03-23T04:57:05;18.00;;;10.30;;
54921;SDS011;40824;45.116;21.296;2024-03-23T04:59:31;16.55;;;10.50;;
54921;SDS011;40824;45.116;21.296;2024-03-23T05:01:58;18.50;;;11.10;;
54921;SDS011;40824;45.116;21.296;2024-03-23T05:04:25;20.63;;;11.02;;
54921;SDS011;40824;45.116;21.296;2024-03-23T05:06:51;18.10;;;9.88;;
54921;SDS011;40824;45.116;21.296;2024-03-23T05:09:17;17.45;;;10.73;;
54921;SDS011;40824;45.116;21.296;2024-03-23T05:11:43;14.55;;;9.93;;
54921;SDS011;40824;45.116;21.296;2024-03-23T05:14:10;18.23;;;10.70;;
54921;SDS011;40824;45.116;21.296;2024-03-23T05:16:36;15.57;;;10.77;;
54921;SDS011;40824;45.116;21.296;2024-03-23T05:19:03;16.08;;;10.75;;
54921;SDS011;40824;45.116;21.296;2024-03-23T05:21:29;15.15;;;10.48;;
54921;SDS011;40824;45.116;21.296;2024-03-23T05:23:55;15.80;;;10.07;;
54921;SDS011;40824;45.116;21.296;2024-03-23T05:26:22;20.08;;;11.50;;
54921;SDS011;40824;45.116;21.296;2024-03-23T05:28:48;16.58;;;10.05;;
54921;SDS011;40824;45.116;21.296;2024-03-23T05:31:27;15.18;;;10.13;;
54921;SDS011;40824;45.116;21.296;2024-03-23T05:33:54;14.98;;;10.43;;
54921;SDS011;40824;45.116;21.296;2024-03-23T05:36:20;17.67;;;10.77;;
54921;SDS011;40824;45.116;21.296;2024-03-23T05:38:47;16.55;;;10.38;;
54921;SDS011;40824;45.116;21.296;2024-03-23T05:41:13;14.95;;;10.55;;
54921;SDS011;40824;45.116;21.296;2024-03-23T05:43:39;15.43;;;9.90;;
54921;SDS011;40824;45.116;21.296;2024-03-23T05:46:05;16.58;;;10.63;;
54921;SDS011;40824;45.116;21.296;2024-03-23T05:48:32;15.95;;;11.00;;
54921;SDS011;40824;45.116;21.296;2024-03-23T05:50:58;15.40;;;10.55;;
54921;SDS011;40824;45.116;21.296;2024-03-23T05:53:25;19.02;;;11.00;;
54921;SDS011;40824;45.116;21.296;2024-03-23T05:55:51;18.73;;;11.50;;
54921;SDS011;40824;45.116;21.296;2024-03-23T05:58:19;18.80;;;11.20;;
54921;SDS011;40824;45.116;21.296;2024-03-23T06:00:45;15.50;;;10.55;;
54921;SDS011;40824;45.116;21.296;2024-03-23T06:03:11;16.65;;;10.70;;
54921;SDS011;40824;45.116;21.296;2024-03-23T06:05:38;17.17;;;10.18;;
54921;SDS011;40824;45.116;21.296;2024-03-23T06:08:04;14.48;;;10.43;;
54921;SDS011;40824;45.116;21.296;2024-03-23T06:10:32;17.58;;;9.80;;
54921;SDS011;40824;45.116;21.296;2024-03-23T06:12:58;14.25;;;9.85;;
54921;SDS011;40824;45.116;21.296;2024-03-23T06:15:24;12.02;;;9.05;;
54921;SDS011;40824;45.116;21.296;2024-03-23T06:17:52;14.38;;;10.77;;
54921;SDS011;40824;45.116;21.296;2024-03-23T06:20:18;15.82;;;11.23;;
54921;SDS011;40824;45.116;21.296;2024-03-23T06:22:44;17.85;;;11.18;;
54921;SDS011;40824;45.116;21.296;2024-03-23T06:25:10;13.73;;;9.68;;
54921;SDS011;40824;45.116;21.296;2024-03-23T06:27:37;12.82;;;9.30;;
54921;SDS011;40824;45.116;21.296;2024-03-23T06:30:04;15.93;;;10.70;;
54921;SDS011;40824;45.116;21.296;2024-03-23T06:32:31;13.77;;;10.38;;
54921;SDS011;40824;45.116;21.296;2024-03-23T06:34:58;15.27;;;9.98;;
54921;SDS011;40824;45.116;21.296;2024-03-23T06:37:25;17.08;;;10.88;;
54921;SDS011;40824;45.116;21.296;2024-03-23T06:39:53;14.38;;;10.07;;
54921;SDS011;40824;45.116;21.296;2024-03-23T06:42:19;17.80;;;10.73;;
54921;SDS011;40824;45.116;21.296;2024-03-23T06:44:45;14.15;;;9.75;;
54921;SDS011;40824;45.116;21.296;2024-03-23T06:47:12;14.07;;;9.70;;
54921;SDS011;40824;45.116;21.296;2024-03-23T06:49:38;14.20;;;9.93;;
54921;SDS011;40824;45.116;21.296;2024-03-23T06:52:04;17.13;;;9.70;;
54921;SDS011;40824;45.116;21.296;2024-03-23T06:54:30;15.48;;;9.93;;
54921;SDS011;40824;45.116;21.296;2024-03-23T06:56:56;12.85;;;9.85;;
54921;SDS011;40824;45.116;21.296;2024-03-23T06:59:22;14.45;;;10.18;;
54921;SDS011;40824;45.116;21.296;2024-03-23T07:01:48;14.98;;;9.10;;
54921;SDS011;40824;45.116;21.296;2024-03-23T07:04:15;13.98;;;9.55;;
54921;SDS011;40824;45.116;21.296;2024-03-23T07:06:45;15.48;;;10.15;;
54921;SDS011;40824;45.116;21.296;2024-03-23T07:09:11;14.73;;;8.90;;
54921;SDS011;40824;45.116;21.296;2024-03-23T07:11:37;15.07;;;9.85;;
54921;SDS011;40824;45.116;21.296;2024-03-23T07:14:03;17.40;;;8.98;;
54921;SDS011;40824;45.116;21.296;2024-03-23T07:16:30;14.82;;;9.80;;
54921;SDS011;40824;45.116;21.296;2024-03-23T07:18:56;14.35;;;9.35;;
54921;SDS011;40824;45.116;21.296;2024-03-23T07:21:22;16.65;;;10.00;;
54921;SDS011;40824;45.116;21.296;2024-03-23T07:23:48;14.57;;;9.38;;
54921;SDS011;40824;45.116;21.296;2024-03-23T07:26:14;23.50;;;9.68;;
54921;SDS011;40824;45.116;21.296;2024-03-23T07:28:40;14.23;;;10.38;;
54921;SDS011;40824;45.116;21.296;2024-03-23T07:31:11;13.45;;;10.07;;
54921;SDS011;40824;45.116;21.296;2024-03-23T07:33:46;11.75;;;9.23;;
54921;SDS011;40824;45.116;21.296;2024-03-23T07:36:13;14.82;;;9.27;;
54921;SDS011;40824;45.116;21.296;2024-03-23T07:38:42;15.02;;;9.90;;
54921;SDS011;40824;45.116;21.296;2024-03-23T07:41:10;13.65;;;10.23;;
54921;SDS011;40824;45.116;21.296;2024-03-23T07:43:37;14.18;;;9.82;;
54921;SDS011;40824;45.116;21.296;2024-03-23T07:46:04;13.38;;;10.38;;
54921;SDS011;40824;45.116;21.296;2024-03-23T07:48:30;16.02;;;10.30;;
54921;SDS011;40824;45.116;21.296;2024-03-23T07:50:57;13.82;;;10.48;;
54921;SDS011;40824;45.116;21.296;2024-03-23T07:53:23;15.85;;;9.80;;
54921;SDS011;40824;45.116;21.296;2024-03-23T07:56:00;12.30;;;10.48;;
54921;SDS011;40824;45.116;21.296;2024-03-23T07:58:26;12.70;;;10.52;;
54921;SDS011;40824;45.116;21.296;2024-03-23T08:00:53;12.68;;;10.85;;
54921;SDS011;40824;45.116;21.296;2024-03-23T08:03:19;13.98;;;10.80;;
54921;SDS011;40824;45.116;21.296;2024-03-23T08:05:45;14.48;;;11.07;;
54921;SDS011;40824;45.116;21.296;2024-03-23T08:08:12;11.95;;;10.10;;
54921;SDS011;40824;45.116;21.296;2024-03-23T08:10:51;14.90;;;10.55;;
54921;SDS011;40824;45.116;21.296;2024-03-23T08:13:17;13.23;;;9.70;;
54921;SDS011;40824;45.116;21.296;2024-03-23T08:15:44;15.07;;;9.55;;
54921;SDS011;40824;45.116;21.296;2024-03-23T08:18:12;13.50;;;9.77;;
54921;SDS011;40824;45.116;21.296;2024-03-23T08:20:38;11.70;;;9.18;;
54921;SDS011;40824;45.116;21.296;2024-03-23T08:23:05;11.38;;;8.70;;
54921;SDS011;40824;45.116;21.296;2024-03-23T08:25:32;14.00;;;9.32;;
54921;SDS011;40824;45.116;21.296;2024-03-23T08:27:58;14.75;;;10.27;;
54921;SDS011;40824;45.116;21.296;2024-03-23T08:30:27;13.93;;;8.90;;
54921;SDS011;40824;45.116;21.296;2024-03-23T08:32:54;13.48;;;8.45;;
54921;SDS011;40824;45.116;21.296;2024-03-23T08:35:20;14.48;;;10.13;;
54921;SDS011;40824;45.116;21.296;2024-03-23T08:37:47;11.00;;;9.15;;
54921;SDS011;40824;45.116;21.296;2024-03-23T08:40:13;13.52;;;8.85;;
54921;SDS011;40824;45.116;21.296;2024-03-23T08:42:39;13.13;;;8.77;;
54921;SDS011;40824;45.116;21.296;2024-03-23T08:45:05;15.90;;;9.40;;
54921;SDS011;40824;45.116;21.296;2024-03-23T08:47:34;15.68;;;9.32;;
54921;SDS011;40824;45.116;21.296;2024-03-23T08:50:01;14.13;;;9.07;;
54921;SDS011;40824;45.116;21.296;2024-03-23T08:52:27;26.70;;;9.27;;
54921;SDS011;40824;45.116;21.296;2024-03-23T08:54:54;13.15;;;8.60;;
54921;SDS011;40824;45.116;21.296;2024-03-23T08:57:22;11.88;;;8.68;;
54921;SDS011;40824;45.116;21.296;2024-03-23T08:59:48;11.02;;;8.18;;
54921;SDS011;40824;45.116;21.296;2024-03-23T09:02:14;11.85;;;8.32;;
54921;SDS011;40824;45.116;21.296;2024-03-23T09:04:41;13.13;;;9.20;;
54921;SDS011;40824;45.116;21.296;2024-03-23T09:07:07;15.20;;;9.55;;
54921;SDS011;40824;45.116;21.296;2024-03-23T09:09:33;13.73;;;9.27;;
54921;SDS011;40824;45.116;21.296;2024-03-23T09:11:59;16.38;;;9.57;;
54921;SDS011;40824;45.116;21.296;2024-03-23T09:14:25;12.98;;;9.02;;
54921;SDS011;40824;45.116;21.296;2024-03-23T09:16:51;15.15;;;9.95;;
54921;SDS011;40824;45.116;21.296;2024-03-23T09:19:18;16.63;;;9.63;;
54921;SDS011;40824;45.116;21.296;2024-03-23T09:21:45;14.18;;;9.18;;
54921;SDS011;40824;45.116;21.296;2024-03-23T09:24:11;13.82;;;9.15;;
54921;SDS011;40824;45.116;21.296;2024-03-23T09:26:37;16.35;;;8.85;;
54921;SDS011;40824;45.116;21.296;2024-03-23T09:29:03;15.20;;;9.38;;
54921;SDS011;40824;45.116;21.296;2024-03-23T09:31:29;12.43;;;9.38;;
54921;SDS011;40824;45.116;21.296;2024-03-23T09:33:57;12.35;;;9.43;;
54921;SDS011;40824;45.116;21.296;2024-03-23T09:36:23;17.10;;;10.55;;
54921;SDS011;40824;45.116;21.296;2024-03-23T09:38:50;17.35;;;9.48;;
54921;SDS011;40824;45.116;21.296;2024-03-23T09:41:16;14.88;;;9.25;;
54921;SDS011;40824;45.116;21.296;2024-03-23T09:43:42;13.45;;;8.95;;
54921;SDS011;40824;45.116;21.296;2024-03-23T09:46:08;15.43;;;9.00;;
54921;SDS011;40824;45.116;21.296;2024-03-23T09:48:34;12.20;;;8.77;;
54921;SDS011;40824;45.116;21.296;2024-03-23T09:51:02;15.73;;;9.27;;
54921;SDS011;40824;45.116;21.296;2024-03-23T09:53:28;14.90;;;9.48;;
54921;SDS011;40824;45.116;21.296;2024-03-23T09:55:57;13.40;;;9.70;;
54921;SDS011;40824;45.116;21.296;2024-03-23T09:58:23;12.15;;;8.57;;
54921;SDS011;40824;45.116;21.296;2024-03-23T10:00:50;13.80;;;8.40;;
54921;SDS011;40824;45.116;21.296;2024-03-23T10:03:16;13.63;;;8.55;;
54921;SDS011;40824;45.116;21.296;2024-03-23T10:05:42;13.65;;;8.80;;
54921;SDS011;40824;45.116;21.296;2024-03-23T10:10:41;13.63;;;8.65;;
54921;SDS011;40824;45.116;21.296;2024-03-23T10:13:10;11.43;;;8.57;;
54921;SDS011;40824;45.116;21.296;2024-03-23T10:15:39;13.43;;;8.23;;
54921;SDS011;40824;45.116;21.296;2024-03-23T10:18:18;11.38;;;7.65;;
54921;SDS011;40824;45.116;21.296;2024-03-23T10:20:51;11.48;;;7.85;;
54921;SDS011;40824;45.116;21.296;2024-03-23T10:23:17;10.57;;;8.13;;
54921;SDS011;40824;45.116;21.296;2024-03-23T10:25:43;12.15;;;7.95;;
54921;SDS011;40824;45.116;21.296;2024-03-23T10:28:11;13.07;;;8.25;;
54921;SDS011;40824;45.116;21.296;2024-03-23T10:30:37;12.20;;;8.45;;
54921;SDS011;40824;45.116;21.296;2024-03-23T10:33:09;9.77;;;7.65;;
54921;SDS011;40824;45.116;21.296;2024-03-23T10:35:36;12.82;;;7.88;;
54921;SDS011;40824;45.116;21.296;2024-03-23T10:38:04;10.68;;;8.00;;
54921;SDS011;40824;45.116;21.296;2024-03-23T10:40:31;13.27;;;8.55;;
54921;SDS011;40824;45.116;21.296;2024-03-23T10:42:57;13.90;;;7.93;;
54921;SDS011;40824;45.116;21.296;2024-03-23T10:45:25;13.55;;;8.43;;
54921;SDS011;40824;45.116;21.296;2024-03-23T10:47:51;12.90;;;7.72;;
54921;SDS011;40824;45.116;21.296;2024-03-23T10:50:17;12.27;;;7.93;;
54921;SDS011;40824;45.116;21.296;2024-03-23T10:52:45;11.10;;;7.93;;
54921;SDS011;40824;45.116;21.296;2024-03-23T10:55:12;10.25;;;7.70;;
54921;SDS011;40824;45.116;21.296;2024-03-23T10:57:44;13.25;;;8.38;;
54921;SDS011;40824;45.116;21.296;2024-03-23T11:00:11;11.10;;;7.82;;
54921;SDS011;40824;45.116;21.296;2024-03-23T11:02:37;11.38;;;7.50;;
54921;SDS011;40824;45.116;21.296;2024-03-23T11:05:37;13.38;;;7.70;;
54921;SDS011;40824;45.116;21.296;2024-03-23T11:07:57;15.70;;;7.70;;
54921;SDS011;40824;45.116;21.296;2024-03-23T11:12:54;15.50;;;8.02;;
54921;SDS011;40824;45.116;21.296;2024-03-23T11:15:20;13.00;;;7.07;;
54921;SDS011;40824;45.116;21.296;2024-03-23T11:18:06;10.32;;;6.70;;
54921;SDS011;40824;45.116;21.296;2024-03-23T11:20:37;9.35;;;6.60;;
54921;SDS011;40824;45.116;21.296;2024-03-23T11:23:04;12.20;;;7.25;;
54921;SDS011;40824;45.116;21.296;2024-03-23T11:25:30;8.90;;;6.90;;
54921;SDS011;40824;45.116;21.296;2024-03-23T11:27:57;8.50;;;5.50;;
54921;SDS011;40824;45.116;21.296;2024-03-23T11:30:24;8.00;;;5.35;;
54921;SDS011;40824;45.116;21.296;2024-03-23T11:32:51;12.00;;;5.93;;
54921;SDS011;40824;45.116;21.296;2024-03-23T11:35:28;8.80;;;5.80;;
54921;SDS011;40824;45.116;21.296;2024-03-23T11:40:35;7.03;;;5.05;;
54921;SDS011;40824;45.116;21.296;2024-03-23T11:43:02;9.52;;;5.25;;
54921;SDS011;40824;45.116;21.296;2024-03-23T11:45:29;9.52;;;5.90;;
54921;SDS011;40824;45.116;21.296;2024-03-23T11:50:33;8.43;;;5.70;;
54921;SDS011;40824;45.116;21.296;2024-03-23T11:55:41;9.23;;;5.13;;
54921;SDS011;40824;45.116;21.296;2024-03-23T11:58:08;10.20;;;5.00;;
54921;SDS011;40824;45.116;21.296;2024-03-23T12:00:35;7.55;;;4.22;;
54921;SDS011;40824;45.116;21.296;2024-03-23T12:03:01;5.90;;;4.85;;
54921;SDS011;40824;45.116;21.296;2024-03-23T12:05:28;8.65;;;5.00;;
54921;SDS011;40824;45.116;21.296;2024-03-23T12:07:55;8.15;;;5.15;;
54921;SDS011;40824;45.116;21.296;2024-03-23T12:10:21;10.25;;;5.10;;
54921;SDS011;40824;45.116;21.296;2024-03-23T12:13:00;8.20;;;4.50;;
54921;SDS011;40824;45.116;21.296;2024-03-23T12:15:26;7.20;;;4.90;;
54921;SDS011;40824;45.116;21.296;2024-03-23T12:18:05;8.00;;;4.93;;
54921;SDS011;40824;45.116;21.296;2024-03-23T12:20:31;6.47;;;4.53;;
54921;SDS011;40824;45.116;21.296;2024-03-23T12:23:07;8.65;;;4.63;;
54921;SDS011;40824;45.116;21.296;2024-03-23T12:25:34;8.50;;;4.45;;
54921;SDS011;40824;45.116;21.296;2024-03-23T12:28:01;7.78;;;4.18;;
54921;SDS011;40824;45.116;21.296;2024-03-23T12:30:27;5.57;;;4.53;;
54921;SDS011;40824;45.116;21.296;2024-03-23T12:32:53;9.02;;;4.30;;
54921;SDS011;40824;45.116;21.296;2024-03-23T12:35:19;6.97;;;4.63;;
54921;SDS011;40824;45.116;21.296;2024-03-23T12:37:46;7.68;;;4.82;;
54921;SDS011;40824;45.116;21.296;2024-03-23T12:40:12;7.85;;;4.70;;
54921;SDS011;40824;45.116;21.296;2024-03-23T12:42:38;7.05;;;4.78;;
54921;SDS011;40824;45.116;21.296;2024-03-23T12:45:04;6.50;;;4.38;;
54921;SDS011;40824;45.116;21.296;2024-03-23T12:47:31;9.85;;;4.55;;
54921;SDS011;40824;45.116;21.296;2024-03-23T12:49:57;9.10;;;4.65;;
54921;SDS011;40824;45.116;21.296;2024-03-23T12:52:23;9.40;;;4.57;;
54921;SDS011;40824;45.116;21.296;2024-03-23T12:54:53;5.65;;;4.07;;
54921;SDS011;40824;45.116;21.296;2024-03-23T12:57:21;9.05;;;4.72;;
54921;SDS011;40824;45.116;21.296;2024-03-23T12:59:47;6.38;;;4.57;;
54921;SDS011;40824;45.116;21.296;2024-03-23T13:02:16;10.48;;;5.35;;
54921;SDS011;40824;45.116;21.296;2024-03-23T13:04:42;8.90;;;4.60;;
54921;SDS011;40824;45.116;21.296;2024-03-23T13:07:08;8.70;;;4.65;;
54921;SDS011;40824;45.116;21.296;2024-03-23T13:09:34;8.07;;;5.13;;
54921;SDS011;40824;45.116;21.296;2024-03-23T13:12:01;9.77;;;4.38;;
54921;SDS011;40824;45.116;21.296;2024-03-23T13:14:27;8.65;;;4.28;;
54921;SDS011;40824;45.116;21.296;2024-03-23T13:16:53;8.65;;;4.22;;
54921;SDS011;40824;45.116;21.296;2024-03-23T13:19:19;5.22;;;3.72;;
54921;SDS011;40824;45.116;21.296;2024-03-23T13:21:48;5.55;;;4.03;;
54921;SDS011;40824;45.116;21.296;2024-03-23T13:24:14;5.35;;;3.80;;
54921;SDS011;40824;45.116;21.296;2024-03-23T13:26:40;6.60;;;4.15;;
54921;SDS011;40824;45.116;21.296;2024-03-23T13:29:06;10.23;;;4.13;;
54921;SDS011;40824;45.116;21.296;2024-03-23T13:31:33;6.72;;;4.47;;
54921;SDS011;40824;45.116;21.296;2024-03-23T13:33:59;7.13;;;3.88;;
54921;SDS011;40824;45.116;21.296;2024-03-23T13:36:25;7.32;;;4.03;;
54921;SDS011;40824;45.116;21.296;2024-03-23T13:38:51;7.95;;;4.28;;
54921;SDS011;40824;45.116;21.296;2024-03-23T13:41:18;10.60;;;4.50;;
54921;SDS011;40824;45.116;21.296;2024-03-23T13:43:44;12.02;;;4.63;;
54921;SDS011;40824;45.116;21.296;2024-03-23T13:46:10;7.15;;;4.45;;
54921;SDS011;40824;45.116;21.296;2024-03-23T13:48:36;7.88;;;4.40;;
54921;SDS011;40824;45.116;21.296;2024-03-23T13:51:03;9.63;;;4.30;;
54921;SDS011;40824;45.116;21.296;2024-03-23T13:53:30;8.23;;;4.45;;
54921;SDS011;40824;45.116;21.296;2024-03-23T13:55:57;8.25;;;4.00;;
54921;SDS011;40824;45.116;21.296;2024-03-23T13:58:23;7.60;;;4.93;;
54921;SDS011;40824;45.116;21.296;2024-03-23T14:00:53;8.55;;;4.28;;
54921;SDS011;40824;45.116;21.296;2024-03-23T14:03:19;6.65;;;4.65;;
54921;SDS011;40824;45.116;21.296;2024-03-23T14:05:45;10.75;;;4.28;;
54921;SDS011;40824;45.116;21.296;2024-03-23T14:08:14;8.48;;;4.93;;
54921;SDS011;40824;45.116;21.296;2024-03-23T14:10:41;14.07;;;4.55;;
54921;SDS011;40824;45.116;21.296;2024-03-23T14:13:07;6.15;;;4.32;;
54921;SDS011;40824;45.116;21.296;2024-03-23T14:15:33;10.30;;;5.22;;
54921;SDS011;40824;45.116;21.296;2024-03-23T14:18:01;6.45;;;4.97;;
54921;SDS011;40824;45.116;21.296;2024-03-23T14:20:28;7.75;;;5.03;;
54921;SDS011;40824;45.116;21.296;2024-03-23T14:22:54;7.30;;;5.53;;
54921;SDS011;40824;45.116;21.296;2024-03-23T14:25:21;9.23;;;5.65;;
54921;SDS011;40824;45.116;21.296;2024-03-23T14:27:52;7.22;;;4.70;;
54921;SDS011;40824;45.116;21.296;2024-03-23T14:30:18;10.65;;;5.72;;
54921;SDS011;40824;45.116;21.296;2024-03-23T14:32:44;9.13;;;5.05;;
54921;SDS011;40824;45.116;21.296;2024-03-23T14:35:10;10.82;;;5.50;;
54921;SDS011;40824;45.116;21.296;2024-03-23T14:37:37;6.60;;;5.53;;
54921;SDS011;40824;45.116;21.296;2024-03-23T14:40:03;10.85;;;5.32;;
54921;SDS011;40824;45.116;21.296;2024-03-23T14:42:30;9.32;;;4.75;;
54921;SDS011;40824;45.116;21.296;2024-03-23T14:44:59;9.30;;;5.07;;
54921;SDS011;40824;45.116;21.296;2024-03-23T14:47:25;7.80;;;5.78;;
54921;SDS011;40824;45.116;21.296;2024-03-23T14:49:51;7.07;;;5.38;;
54921;SDS011;40824;45.116;21.296;2024-03-23T14:52:17;7.85;;;4.97;;
54921;SDS011;40824;45.116;21.296;2024-03-23T14:54:43;6.15;;;4.30;;
54921;SDS011;40824;45.116;21.296;2024-03-23T14:57:10;8.70;;;5.40;;
54921;SDS011;40824;45.116;21.296;2024-03-23T14:59:36;9.23;;;5.20;;
54921;SDS011;40824;45.116;21.296;2024-03-23T15:02:08;7.43;;;5.00;;
54921;SDS011;40824;45.116;21.296;2024-03-23T15:04:34;8.30;;;5.32;;
54921;SDS011;40824;45.116;21.296;2024-03-23T15:07:01;6.88;;;5.50;;
54921;SDS011;40824;45.116;21.296;2024-03-23T15:09:27;9.18;;;5.97;;
54921;SDS011;40824;45.116;21.296;2024-03-23T15:11:54;10.52;;;5.72;;
54921;SDS011;40824;45.116;21.296;2024-03-23T15:14:20;7.50;;;5.03;;
54921;SDS011;40824;45.116;21.296;2024-03-23T15:16:47;9.10;;;5.78;;
54921;SDS011;40824;45.116;21.296;2024-03-23T15:19:14;8.27;;;5.93;;
54921;SDS011;40824;45.116;21.296;2024-03-23T15:21:42;11.60;;;6.57;;